Time;durP1;ratioP1;P1;durP2;ratioP2;P2;SDS_P1;SDS_P2;PMS_P1;PMS_P2;Temp;Humidity;BMP_temperature;BMP_pressure;BME280_temperature;BME280_humidity;BME280_pressure;Samples;Min_cycle;Max_cycle;Signal;HPM_P1;HPM_P2
2021/08/20 00:00:53;;;;;;;22.83;20.63;;;;;;;16.90;100.00;99043.25;2080726;28;20455;-73
2021/08/20 00:01:54;;;;;;;23.30;21.10;;;;;;;16.88;100.00;99038.19;2080151;28;20545;-73
2021/08/20 00:02:56;;;;;;;22.23;20.23;;;;;;;16.89;100.00;99039.75;2080322;28;20991;-73
2021/08/20 00:03:58;;;;;;;23.50;21.17;;;;;;;16.92;100.00;99041.00;2080386;28;20258;-74
2021/08/20 00:05:00;;;;;;;22.80;20.83;;;;;;;16.91;100.00;99048.28;2081007;28;20451;-73
2021/08/20 00:06:00;;;;;;;22.87;20.87;;;;;;;16.89;100.00;99039.75;2081044;28;20474;-73
2021/08/20 00:07:02;;;;;;;23.03;20.93;;;;;;;16.91;100.00;99048.28;2081037;28;20450;-74
2021/08/20 00:08:05;;;;;;;22.13;20.13;;;;;;;16.89;100.00;99044.38;2080264;28;20250;-73
2021/08/20 00:09:09;;;;;;;22.13;20.23;;;;;;;16.90;100.00;99046.72;2080297;28;20443;-74
2021/08/20 00:10:10;;;;;;;22.30;20.27;;;;;;;16.91;100.00;99053.69;2080712;28;20504;-73
2021/08/20 00:11:12;;;;;;;22.20;20.17;;;;;;;16.91;100.00;99044.81;2081071;28;20462;-73
2021/08/20 00:12:13;;;;;;;22.53;20.53;;;;;;;16.92;100.00;99052.56;2080967;28;20482;-73
2021/08/20 00:13:14;;;;;;;23.23;20.83;;;;;;;16.91;100.00;99056.38;2080924;28;20457;-73
2021/08/20 00:14:15;;;;;;;23.30;21.20;;;;;;;16.89;100.00;99053.25;2080935;28;20246;-73
2021/08/20 00:15:17;;;;;;;24.50;21.40;;;;;;;16.88;100.00;99040.91;2080930;28;20446;-73
2021/08/20 00:16:18;;;;;;;23.17;20.87;;;;;;;16.89;100.00;99053.25;2080066;28;20485;-73
2021/08/20 00:17:19;;;;;;;23.13;21.10;;;;;;;16.86;100.00;99047.75;2080175;28;20435;-73
2021/08/20 00:18:20;;;;;;;23.17;20.90;;;;;;;16.86;100.00;99047.75;2080912;28;20227;-73
2021/08/20 00:19:21;;;;;;;23.00;20.70;;;;;;;16.84;100.00;99045.38;2081022;28;20442;-73
2021/08/20 00:20:23;;;;;;;22.70;20.40;;;;;;;16.84;100.00;99044.59;2080559;28;20303;-73
2021/08/20 00:21:24;;;;;;;22.70;20.53;;;;;;;16.84;100.00;99045.38;2080970;28;20454;-73
2021/08/20 00:22:27;;;;;;;21.83;20.13;;;;;;;16.82;100.00;99044.94;2080940;28;20458;-73
2021/08/20 00:23:29;;;;;;;21.90;20.00;;;;;;;16.82;100.00;99042.22;2080872;28;20277;-73
2021/08/20 00:24:31;;;;;;;22.37;20.47;;;;;;;16.81;100.00;99037.97;2081027;28;20442;-73
2021/08/20 00:25:33;;;;;;;23.00;20.77;;;;;;;16.82;100.00;99036.84;2081045;28;20541;-73
2021/08/20 00:26:34;;;;;;;22.30;20.40;;;;;;;16.83;100.00;99043.03;2080002;28;20533;-73
2021/08/20 00:27:35;;;;;;;23.00;20.90;;;;;;;16.82;100.00;99041.44;2078571;28;20466;-73
2021/08/20 00:28:36;;;;;;;22.07;20.07;;;;;;;16.82;100.00;99042.22;2071837;28;20311;-73
2021/08/20 00:29:39;;;;;;;23.20;21.00;;;;;;;16.81;100.00;99043.34;2071615;28;20854;-74
2021/08/20 00:30:39;;;;;;;22.67;20.47;;;;;;;16.80;100.00;99043.69;2080153;28;20468;-74
2021/08/20 00:31:41;;;;;;;23.27;21.03;;;;;;;16.80;100.00;99039.09;2080892;28;20449;-73
2021/08/20 00:32:41;;;;;;;22.37;20.37;;;;;;;16.78;100.00;99044.03;2080993;28;20230;-73
2021/08/20 00:33:43;;;;;;;23.30;21.30;;;;;;;16.78;100.00;99046.75;2079957;28;21024;-73
2021/08/20 00:34:44;;;;;;;22.73;20.73;;;;;;;16.76;100.00;99046.25;2079989;28;20678;-73
2021/08/20 00:35:46;;;;;;;21.90;19.90;;;;;;;16.75;100.00;99039.31;2080189;28;20848;-73
2021/08/20 00:36:49;;;;;;;22.70;20.80;;;;;;;16.75;100.00;99052.78;2080925;28;20714;-73
2021/08/20 00:37:50;;;;;;;23.10;21.10;;;;;;;16.74;100.00;99047.72;2080722;28;20541;-73
2021/08/20 00:38:52;;;;;;;23.33;21.20;;;;;;;16.74;100.00;99045.03;2079930;28;20443;-73
2021/08/20 00:39:54;;;;;;;22.87;20.83;;;;;;;16.74;100.00;99045.81;2079697;28;20534;-73
2021/08/20 00:40:57;;;;;;;22.60;20.70;;;;;;;16.72;100.00;99042.69;2080768;28;20458;-73
2021/08/20 00:41:58;;;;;;;23.40;21.10;;;;;;;16.72;100.00;99048.06;2080803;28;20470;-73
2021/08/20 00:42:59;;;;;;;22.77;20.70;;;;;;;16.73;100.00;99049.66;2079974;28;20712;-73
2021/08/20 00:44:01;;;;;;;23.63;21.50;;;;;;;16.73;100.00;99038.09;2079978;28;20835;-73
2021/08/20 00:45:02;;;;;;;22.93;20.93;;;;;;;16.73;100.00;99044.25;2080713;28;20228;-73
2021/08/20 00:46:04;;;;;;;22.80;20.73;;;;;;;16.72;100.00;99048.06;2080731;28;20450;-73
2021/08/20 00:47:04;;;;;;;23.57;21.37;;;;;;;16.73;100.00;99043.47;2080644;28;20466;-73
2021/08/20 00:48:07;;;;;;;23.13;21.23;;;;;;;16.69;100.00;99043.38;2079808;28;20457;-73
2021/08/20 00:49:07;;;;;;;22.57;20.53;;;;;;;16.69;100.00;99043.38;2079744;28;20314;-74
2021/08/20 00:50:10;;;;;;;22.03;20.17;;;;;;;16.67;100.00;99045.56;2080735;28;20446;-73
2021/08/20 00:51:16;;;;;;;22.50;20.60;;;;;;;16.65;100.00;99043.22;2079887;28;20677;-73
2021/08/20 00:52:19;;;;;;;22.63;20.63;;;;;;;16.64;100.00;99043.56;2072191;28;20879;-73
2021/08/20 00:53:20;;;;;;;23.03;20.93;;;;;;;16.63;100.00;99044.69;2080117;28;20964;-73
2021/08/20 00:54:23;;;;;;;22.73;20.67;;;;;;;16.64;100.00;99046.25;2080683;28;20794;-73
2021/08/20 00:55:24;;;;;;;23.03;20.93;;;;;;;16.61;100.00;99046.94;2080388;28;20258;-73
2021/08/20 00:56:26;;;;;;;22.60;20.60;;;;;;;16.61;100.00;99047.72;2080824;28;20465;-73
2021/08/20 00:57:27;;;;;;;22.30;20.50;;;;;;;16.61;100.00;99041.53;2080672;28;20235;-73
2021/08/20 00:58:30;;;;;;;22.73;20.83;;;;;;;16.60;100.00;99048.84;2079874;28;20450;-73
2021/08/20 00:59:32;;;;;;;22.50;20.53;;;;;;;16.60;100.00;99045.34;2080069;28;20478;-73
2021/08/20 01:00:34;;;;;;;21.77;19.60;;;;;;;16.58;100.00;99042.97;2079820;28;20492;-73
2021/08/20 01:01:34;;;;;;;21.87;20.17;;;;;;;16.59;100.00;99043.75;2079887;28;20521;-73
2021/08/20 01:02:36;;;;;;;21.77;19.87;;;;;;;16.57;100.00;99040.63;2079705;28;20940;-73
2021/08/20 01:03:38;;;;;;;21.93;19.97;;;;;;;16.58;100.00;99052.97;2071433;28;20595;-74
2021/08/20 01:04:39;;;;;;;23.43;21.00;;;;;;;16.54;100.00;99042.09;2071548;28;20550;-74
2021/08/20 01:05:40;;;;;;;22.33;20.43;;;;;;;16.54;100.00;99044.00;2079959;28;20223;-73
2021/08/20 01:06:42;;;;;;;22.20;20.00;;;;;;;16.51;100.00;99039.28;2080538;28;20496;-73
2021/08/20 01:07:43;;;;;;;22.43;20.43;;;;;;;16.53;100.00;99045.13;2079715;28;20273;-73
2021/08/20 01:08:45;;;;;;;22.63;20.50;;;;;;;16.51;100.00;99034.69;2079101;28;20454;-73
2021/08/20 01:09:47;;;;;;;22.23;20.43;;;;;;;16.50;100.00;99041.19;2079944;28;20658;-73
2021/08/20 01:10:50;;;;;;;23.00;21.10;;;;;;;16.50;100.00;99032.31;2079845;28;20469;-73
2021/08/20 01:11:51;;;;;;;23.33;21.13;;;;;;;16.52;100.00;99038.16;2079764;28;20454;-73
2021/08/20 01:12:54;;;;;;;22.50;20.70;;;;;;;16.52;100.00;99043.56;2071465;28;21031;-73
2021/08/20 01:13:55;;;;;;;23.50;21.20;;;;;;;16.52;100.00;99038.16;2071596;28;20466;-73
2021/08/20 01:14:57;;;;;;;22.47;20.53;;;;;;;16.51;100.00;99034.69;2079755;28;20484;-73
2021/08/20 01:15:59;;;;;;;22.23;20.33;;;;;;;16.53;100.00;99040.53;2079896;28;20236;-73
2021/08/20 01:17:02;;;;;;;22.97;20.97;;;;;;;16.56;100.00;99039.06;2079852;28;20458;-73
2021/08/20 01:18:03;;;;;;;23.20;20.93;;;;;;;16.58;100.00;99044.88;2071750;28;21013;-73
2021/08/20 01:19:05;;;;;;;23.17;21.23;;;;;;;16.55;100.00;99038.28;2079711;28;20895;-73
2021/08/20 01:20:08;;;;;;;22.87;20.63;;;;;;;16.57;100.00;99038.72;2079791;28;20704;-73
2021/08/20 01:21:12;;;;;;;24.40;22.10;;;;;;;16.59;100.00;99041.88;2079478;28;20462;-73
2021/08/20 01:22:13;;;;;;;22.97;20.97;;;;;;;16.60;100.00;99037.28;2079581;28;20455;-73
2021/08/20 01:23:19;;;;;;;22.63;20.53;;;;;;;16.60;100.00;99046.16;2072059;28;20489;-73
2021/08/20 01:24:20;;;;;;;23.07;20.97;;;;;;;16.61;100.00;99044.22;2079911;28;20454;-73
2021/08/20 01:25:23;;;;;;;21.83;20.00;;;;;;;16.65;100.00;99053.19;2080526;28;20443;-74
2021/08/20 01:26:25;;;;;;;23.10;21.03;;;;;;;16.65;100.00;99045.13;2079238;28;20465;-73
2021/08/20 01:27:28;;;;;;;21.97;20.10;;;;;;;16.65;100.00;99048.59;2071699;28;20487;-73
2021/08/20 01:28:29;;;;;;;22.50;20.60;;;;;;;16.66;100.00;99047.47;2071718;28;20463;-73
2021/08/20 01:29:32;;;;;;;22.83;20.77;;;;;;;16.66;100.00;99046.69;2071508;28;20448;-73
2021/08/20 01:30:34;;;;;;;23.43;21.33;;;;;;;16.66;100.00;99044.78;2071980;28;20459;-73
2021/08/20 01:31:36;;;;;;;23.50;21.40;;;;;;;16.67;100.00;99040.19;2071634;28;20439;-73
2021/08/20 01:32:37;;;;;;;22.60;20.70;;;;;;;16.67;100.00;99042.88;2079285;28;20458;-73
2021/08/20 01:33:39;;;;;;;23.63;21.40;;;;;;;16.66;100.00;99044.00;2088000;28;20524;-73
2021/08/20 01:34:40;;;;;;;23.07;21.00;;;;;;;16.66;100.00;99044.78;2079636;28;20665;-73
2021/08/20 01:35:41;;;;;;;23.87;21.60;;;;;;;16.67;100.00;99045.56;2079860;28;20901;-73
2021/08/20 01:36:43;;;;;;;22.90;20.73;;;;;;;16.68;100.00;99041.78;2079595;28;20317;-73
2021/08/20 01:37:45;;;;;;;22.47;20.33;;;;;;;16.66;100.00;99044.00;2071390;28;20455;-73
2021/08/20 01:38:48;;;;;;;23.10;21.07;;;;;;;16.68;100.00;99044.47;2079467;28;20215;-74
2021/08/20 01:39:49;;;;;;;23.57;21.47;;;;;;;16.68;100.00;99049.84;2079414;28;20470;-73
2021/08/20 01:40:53;;;;;;;23.87;21.57;;;;;;;16.70;100.00;99038.78;2071536;28;20546;-73
2021/08/20 01:41:54;;;;;;;23.13;21.17;;;;;;;16.71;100.00;99046.50;2071388;28;20439;-73
2021/08/20 01:42:55;;;;;;;23.30;21.10;;;;;;;16.70;100.00;99050.34;2071582;28;20478;-73
2021/08/20 01:43:58;;;;;;;21.93;20.03;;;;;;;16.70;100.00;99039.56;2079796;28;20489;-74
2021/08/20 01:44:58;;;;;;;23.20;21.13;;;;;;;16.69;100.00;99042.59;2080475;28;20211;-73
2021/08/20 01:46:03;;;;;;;23.40;21.40;;;;;;;16.69;100.00;99042.59;2079658;28;21049;-73
2021/08/20 01:47:04;;;;;;;22.70;20.70;;;;;;;16.68;100.00;99041.78;2079598;28;20471;-73
2021/08/20 01:48:07;;;;;;;22.83;21.00;;;;;;;16.67;100.00;99045.56;2071559;28;20482;-73
2021/08/20 01:49:11;;;;;;;24.00;21.63;;;;;;;16.62;100.00;99035.03;2071308;28;20466;-73
2021/08/20 01:50:13;;;;;;;22.07;20.17;;;;;;;16.61;100.00;99044.22;2071647;28;20447;-73
2021/08/20 01:51:17;;;;;;;23.00;21.00;;;;;;;16.59;100.00;99041.06;2071275;28;20479;-73
2021/08/20 01:52:19;;;;;;;22.60;20.60;;;;;;;16.56;100.00;99044.44;2071715;28;20505;-73
2021/08/20 01:53:22;;;;;;;24.10;21.63;;;;;;;16.55;100.00;99037.50;2079473;28;20454;-73
2021/08/20 01:54:25;;;;;;;23.47;21.17;;;;;;;16.53;100.00;99039.75;2071393;28;20458;-73
2021/08/20 01:55:28;;;;;;;23.30;21.07;;;;;;;16.52;100.00;99046.25;2071295;28;20467;-73
2021/08/20 01:56:34;;;;;;;22.73;20.73;;;;;;;16.49;100.00;99049.59;2079725;28;20458;-73
2021/08/20 01:57:42;;;;;;;23.43;21.30;;;;;;;16.49;100.00;99030.75;2071601;28;20489;-73
2021/08/20 01:58:45;;;;;;;23.43;21.50;;;;;;;16.52;100.00;99038.16;2071643;28;20510;-73
2021/08/20 01:59:48;;;;;;;24.03;21.67;;;;;;;16.52;100.00;99044.34;2071664;28;20455;-73
2021/08/20 02:00:48;;;;;;;23.43;21.37;;;;;;;16.56;100.00;99041.75;2079532;28;20817;-73
2021/08/20 02:01:54;;;;;;;23.37;21.40;;;;;;;16.55;100.00;99043.66;2071590;28;21004;-73
2021/08/20 02:02:57;;;;;;;23.00;21.10;;;;;;;16.56;100.00;99039.84;2071630;28;20467;-73
2021/08/20 02:04:00;;;;;;;22.60;20.50;;;;;;;16.55;100.00;99037.50;2079547;28;20473;-73
2021/08/20 02:05:04;;;;;;;23.13;21.07;;;;;;;16.54;100.00;99034.00;2079570;28;20956;-73
2021/08/20 02:06:06;;;;;;;22.33;20.23;;;;;;;16.55;100.00;99027.50;2071475;28;20980;-73
2021/08/20 02:07:10;;;;;;;23.30;21.33;;;;;;;16.57;100.00;99037.94;2071598;28;21020;-73
2021/08/20 02:08:15;;;;;;;22.87;20.97;;;;;;;16.55;100.00;99037.50;2071852;28;20450;-73
2021/08/20 02:09:18;;;;;;;23.87;21.97;;;;;;;16.58;100.00;99039.50;2071823;28;20465;-73
2021/08/20 02:10:20;;;;;;;24.30;22.20;;;;;;;16.56;100.00;99036.38;2071371;28;20482;-73
2021/08/20 02:11:24;;;;;;;24.03;22.00;;;;;;;16.57;100.00;99037.94;2079229;28;20219;-73
2021/08/20 02:12:32;;;;;;;23.20;21.20;;;;;;;16.53;100.00;99035.13;2071838;28;20513;-73
2021/08/20 02:13:40;;;;;;;23.13;21.27;;;;;;;16.51;100.00;99032.00;2079098;28;20971;-73
2021/08/20 02:14:43;;;;;;;23.27;20.97;;;;;;;16.50;100.00;99041.19;2071526;28;20451;-73
2021/08/20 02:15:44;;;;;;;22.90;20.73;;;;;;;16.49;100.00;99041.50;2071265;28;20815;-73
2021/08/20 02:16:46;;;;;;;22.80;21.00;;;;;;;16.46;100.00;99036.81;2079585;28;20434;-73
2021/08/20 02:17:50;;;;;;;22.53;20.53;;;;;;;16.45;100.00;99027.16;2071848;28;20235;-74
2021/08/20 02:18:53;;;;;;;22.00;19.87;;;;;;;16.44;100.00;99036.38;2070928;28;20481;-74
2021/08/20 02:19:57;;;;;;;22.60;20.70;;;;;;;16.42;100.00;99033.19;2071693;28;20451;-73
2021/08/20 02:21:00;;;;;;;23.27;21.27;;;;;;;16.39;100.00;99038.13;2071525;28;20470;-73
2021/08/20 02:22:03;;;;;;;23.63;21.33;;;;;;;16.37;100.00;99026.13;2079494;28;20458;-73
2021/08/20 02:23:17;;;;;;;22.10;20.37;;;;;;;16.32;100.00;99029.81;2072782;28;20945;-73
2021/08/20 02:24:20;;;;;;;23.33;21.27;;;;;;;16.33;100.00;99034.13;2071696;28;20476;-73
2021/08/20 02:25:24;;;;;;;22.53;20.43;;;;;;;16.31;100.00;99028.25;2071409;28;21008;-73
2021/08/20 02:26:26;;;;;;;22.27;20.37;;;;;;;16.29;100.00;99025.13;2079449;28;20451;-73
2021/08/20 02:27:28;;;;;;;22.40;20.20;;;;;;;16.29;100.00;99033.19;2079014;28;20481;-73
2021/08/20 02:28:35;;;;;;;21.77;19.70;;;;;;;16.31;100.00;99036.31;2071756;28;21003;-73
2021/08/20 02:29:37;;;;;;;22.37;20.37;;;;;;;16.27;100.00;99021.97;2078910;28;20462;-73
2021/08/20 02:30:40;;;;;;;21.83;20.00;;;;;;;16.28;100.00;99034.31;2079391;28;20891;-73
2021/08/20 02:31:44;;;;;;;21.97;19.93;;;;;;;16.28;100.00;99028.16;2079434;28;20446;-73
2021/08/20 02:32:48;;;;;;;22.53;20.63;;;;;;;16.27;100.00;99023.88;2071706;28;20577;-73
2021/08/20 02:33:51;;;;;;;22.27;20.27;;;;;;;16.27;100.00;99032.75;2071568;28;20455;-73
2021/08/20 02:34:57;;;;;;;21.53;19.80;;;;;;;16.26;100.00;99031.19;2071459;28;20822;-73
2021/08/20 02:36:02;;;;;;;21.67;19.70;;;;;;;16.24;100.00;99028.00;2071528;28;20514;-73
2021/08/20 02:37:03;;;;;;;21.97;20.10;;;;;;;16.25;100.00;99029.59;2071448;28;20456;-73
2021/08/20 02:38:07;;;;;;;22.53;20.63;;;;;;;16.22;100.00;99030.25;2071616;28;20459;-73
2021/08/20 02:39:08;;;;;;;22.47;20.37;;;;;;;16.22;100.00;99029.47;2070943;28;20839;-73
2021/08/20 02:40:11;;;;;;;23.10;21.00;;;;;;;16.20;100.00;99027.13;2079416;28;20458;-74
2021/08/20 02:41:20;;;;;;;22.50;20.23;;;;;;;16.20;100.00;99037.88;2079406;28;20317;-73
2021/08/20 02:42:21;;;;;;;21.93;20.03;;;;;;;16.19;100.00;99039.00;2071048;28;20455;-74
2021/08/20 02:43:23;;;;;;;21.87;20.10;;;;;;;16.18;100.00;99040.13;2071302;28;20455;-73
2021/08/20 02:44:25;;;;;;;21.80;19.90;;;;;;;16.15;100.00;99040.00;2071127;28;20232;-73
2021/08/20 02:45:27;;;;;;;22.30;20.07;;;;;;;16.14;100.00;99033.81;2071345;28;20454;-73
2021/08/20 02:46:34;;;;;;;21.73;19.93;;;;;;;16.13;100.00;99042.25;2072101;28;20451;-73
2021/08/20 02:47:37;;;;;;;22.47;20.57;;;;;;;16.11;100.00;99037.19;2071582;28;20996;-73
2021/08/20 02:48:38;;;;;;;22.67;20.57;;;;;;;16.12;100.00;99044.16;2070929;28;20550;-73
2021/08/20 02:49:44;;;;;;;23.03;20.87;;;;;;;16.15;100.00;99038.09;2071803;28;20447;-73
2021/08/20 02:50:47;;;;;;;22.20;20.30;;;;;;;16.15;100.00;99040.00;2071572;28;20487;-73
2021/08/20 02:51:49;;;;;;;23.10;20.17;;;;;;;16.19;100.00;99043.59;2072806;28;20451;-73
2021/08/20 02:52:53;;;;;;;22.70;20.70;;;;;;;16.20;100.00;99035.19;2072702;28;20925;-73
2021/08/20 02:53:56;;;;;;;21.43;19.33;;;;;;;16.23;100.00;99031.03;2072477;28;20965;-73
2021/08/20 02:54:58;;;;;;;22.80;20.80;;;;;;;16.24;100.00;99038.78;2081083;28;20458;-73
2021/08/20 02:56:04;;;;;;;22.93;20.77;;;;;;;16.27;100.00;99032.75;2080848;28;20465;-73
2021/08/20 02:57:22;;;;;;;22.20;20.20;;;;;;;16.28;100.00;99031.63;2074401;28;20933;-73
2021/08/20 02:58:26;;;;;;;22.27;20.07;;;;;;;16.29;100.00;99027.81;2072912;28;20495;-73
2021/08/20 02:59:34;;;;;;;23.00;20.53;;;;;;;16.31;100.00;99027.47;2073484;28;20458;-73
2021/08/20 03:00:37;;;;;;;22.50;20.50;;;;;;;16.30;100.00;99026.69;2080405;28;20461;-73
2021/08/20 03:01:39;;;;;;;22.00;20.20;;;;;;;16.31;100.00;99024.78;2072722;28;20467;-73
2021/08/20 03:02:47;;;;;;;22.37;20.30;;;;;;;16.32;100.00;99032.50;2080779;28;20542;-73
2021/08/20 03:03:49;;;;;;;22.13;20.20;;;;;;;16.33;100.00;99030.59;2080829;28;20454;-73
2021/08/20 03:04:55;;;;;;;22.33;20.53;;;;;;;16.33;100.00;99033.28;2072915;28;20223;-73
2021/08/20 03:05:56;;;;;;;22.00;20.10;;;;;;;16.33;100.00;99036.81;2072040;28;20451;-73
2021/08/20 03:06:57;;;;;;;21.93;20.07;;;;;;;16.33;100.00;99034.13;2072550;28;20239;-73
2021/08/20 03:08:15;;;;;;;22.50;20.60;;;;;;;16.30;100.00;99034.75;2074255;28;20447;-73
2021/08/20 03:09:17;;;;;;;22.60;20.47;;;;;;;16.29;100.00;99030.50;2072492;28;20459;-73
2021/08/20 03:10:19;;;;;;;22.20;20.43;;;;;;;16.30;100.00;99037.44;2080729;28;20536;-73
2021/08/20 03:11:20;;;;;;;22.47;20.47;;;;;;;16.30;100.00;99031.28;2072381;28;21083;-73
2021/08/20 03:12:24;;;;;;;22.20;20.10;;;;;;;16.29;100.00;99035.88;2072369;28;20899;-73
2021/08/20 03:13:29;;;;;;;22.20;20.33;;;;;;;16.31;100.00;99033.63;2080188;28;20227;-73
2021/08/20 03:14:35;;;;;;;21.67;19.70;;;;;;;16.35;100.00;99039.16;2072840;28;20447;-73
2021/08/20 03:15:37;;;;;;;21.52;19.63;;;;;;;16.36;100.00;99033.44;2072696;28;21121;-73
2021/08/20 03:16:39;;;;;;;22.13;20.07;;;;;;;16.38;100.00;99033.88;2080829;28;20677;-73
2021/08/20 03:17:41;;;;;;;21.60;19.53;;;;;;;16.39;100.00;99035.44;2080566;28;20553;-73
2021/08/20 03:18:45;;;;;;;23.40;21.23;;;;;;;16.39;100.00;99038.13;2072600;28;20474;-73
2021/08/20 03:19:52;;;;;;;23.50;21.00;;;;;;;16.40;100.00;99028.94;2072963;28;20455;-73
2021/08/20 03:20:53;;;;;;;22.57;20.50;;;;;;;16.39;100.00;99030.06;2072426;28;20463;-73
2021/08/20 03:22:03;;;;;;;22.50;20.47;;;;;;;16.40;100.00;99030.84;2080702;28;20737;-74
2021/08/20 03:23:05;;;;;;;22.30;20.30;;;;;;;16.39;100.00;99031.97;2080653;28;20458;-73
2021/08/20 03:24:08;;;;;;;23.13;21.23;;;;;;;16.37;100.00;99026.94;2072532;28;21021;-73
2021/08/20 03:25:12;;;;;;;23.13;20.63;;;;;;;16.40;100.00;99025.47;2072530;28;20470;-73
2021/08/20 03:26:13;;;;;;;22.50;20.80;;;;;;;16.39;100.00;99029.28;2072559;28;20463;-73
2021/08/20 03:27:23;;;;;;;23.27;21.07;;;;;;;16.38;100.00;99039.25;2080234;28;20462;-73
2021/08/20 03:29:03;;;;;;;24.03;21.90;;;;;;;16.36;100.00;99032.66;2061976;28;20500;-73
2021/08/20 03:30:06;;;;;;;23.70;21.73;;;;;;;16.36;100.00;99030.75;2080631;28;21074;-73
2021/08/20 03:31:22;;;;;;;22.43;20.63;;;;;;;16.37;100.00;99036.91;2074313;28;20496;-73
2021/08/20 03:32:24;;;;;;;23.27;21.17;;;;;;;16.37;100.00;99043.06;2072260;28;20538;-73
2021/08/20 03:33:28;;;;;;;22.93;20.80;;;;;;;16.35;100.00;99037.25;2072650;28;20455;-73
2021/08/20 03:34:40;;;;;;;22.43;20.60;;;;;;;16.35;100.00;99039.16;2073554;28;20513;-73
2021/08/20 03:35:41;;;;;;;23.60;21.30;;;;;;;16.36;100.00;99041.50;2072463;28;20447;-73
2021/08/20 03:36:43;;;;;;;24.27;22.07;;;;;;;16.37;100.00;99037.69;2080553;28;20533;-74
2021/08/20 03:38:01;;;;;;;24.33;22.00;;;;;;;16.37;100.00;99043.06;2074242;28;20228;-73
2021/08/20 03:39:08;;;;;;;23.47;21.33;;;;;;;16.39;100.00;99045.44;2079690;28;20553;-73
2021/08/20 03:40:11;;;;;;;22.47;20.67;;;;;;;16.36;100.00;99038.81;2080426;28;20451;-73
2021/08/20 03:41:17;;;;;;;24.03;21.83;;;;;;;16.36;100.00;99041.50;2080653;28;20512;-73
2021/08/20 03:42:34;;;;;;;24.17;21.90;;;;;;;16.36;100.00;99041.50;2080235;28;20447;-73
2021/08/20 03:43:59;;;;;;;24.33;21.97;;;;;;;16.36;100.00;99044.19;2074851;28;20526;-73
2021/08/20 03:45:01;;;;;;;24.73;22.47;;;;;;;16.36;100.00;99041.50;2072164;28;20451;-73
2021/08/20 03:46:08;;;;;;;24.40;22.23;;;;;;;16.38;100.00;99058.13;2072207;28;20447;-73
2021/08/20 03:47:10;;;;;;;25.37;23.03;;;;;;;16.38;100.00;99046.56;2080048;28;20781;-73
2021/08/20 03:48:12;;;;;;;24.60;22.30;;;;;;;16.38;100.00;99055.41;2072209;28;20610;-73
2021/08/20 03:49:13;;;;;;;24.87;22.67;;;;;;;16.37;100.00;99047.69;2080446;28;20232;-74
2021/08/20 03:50:15;;;;;;;24.93;22.60;;;;;;;16.37;100.00;99059.25;2072165;28;20447;-73
2021/08/20 03:51:16;;;;;;;24.27;22.00;;;;;;;16.36;100.00;99052.28;2072275;28;20227;-73
2021/08/20 03:52:18;;;;;;;25.27;23.03;;;;;;;16.36;100.00;99057.66;2071909;28;20474;-73
2021/08/20 03:53:19;;;;;;;24.83;22.30;;;;;;;16.36;100.00;99062.28;2071793;28;20973;-73
2021/08/20 03:54:22;;;;;;;25.00;22.63;;;;;;;16.36;100.00;99057.66;2072321;28;20448;-73
2021/08/20 03:55:24;;;;;;;23.90;22.00;;;;;;;16.35;100.00;99050.72;2072169;28;20474;-73
2021/08/20 03:57:00;;;;;;;22.97;20.97;;;;;;;16.34;100.00;99049.16;2080100;28;20446;-73
2021/08/20 03:58:01;;;;;;;23.30;21.20;;;;;;;16.33;100.00;99058.34;2080299;28;20865;-73
2021/08/20 03:59:03;;;;;;;23.53;21.10;;;;;;;16.29;100.00;99057.41;2072138;28;20546;-73
2021/08/20 04:00:06;;;;;;;22.70;20.57;;;;;;;16.30;100.00;99058.22;2072321;28;20818;-73
2021/08/20 04:01:17;;;;;;;22.90;20.77;;;;;;;16.29;100.00;99057.41;2080269;28;20450;-73
2021/08/20 04:02:21;;;;;;;23.27;21.00;;;;;;;16.29;100.00;99056.63;2080311;28;20477;-74
2021/08/20 04:03:23;;;;;;;22.60;20.50;;;;;;;16.28;100.00;99055.84;2071804;28;20505;-73
2021/08/20 04:04:25;;;;;;;24.03;21.63;;;;;;;16.28;100.00;99057.75;2072155;28;20525;-73
2021/08/20 04:05:30;;;;;;;23.67;21.33;;;;;;;16.26;100.00;99052.72;2080229;28;21030;-73
2021/08/20 04:06:44;;;;;;;23.77;21.48;;;;;;;16.26;100.00;99052.72;2073289;28;20466;-73
2021/08/20 04:07:47;;;;;;;23.77;21.23;;;;;;;16.28;100.00;99047.00;2072191;28;20362;-73
2021/08/20 04:09:11;;;;;;;25.20;21.03;;;;;;;16.28;100.00;99058.53;2079899;28;20877;-73
2021/08/20 04:10:36;;;;;;;24.38;21.83;;;;;;;16.28;100.00;99055.84;2072544;28;20454;-73
2021/08/20 04:11:49;;;;;;;23.93;21.63;;;;;;;16.29;100.00;99052.03;2080837;28;20219;-73
2021/08/20 04:13:10;;;;;;;22.33;20.33;;;;;;;16.28;100.00;99061.25;2076297;28;20454;-73
2021/08/20 04:14:17;;;;;;;22.27;20.23;;;;;;;16.26;100.00;99050.03;2080309;28;20477;-73
2021/08/20 04:15:18;;;;;;;22.07;20.13;;;;;;;16.25;100.00;99055.75;2072180;28;20530;-73
2021/08/20 04:16:21;;;;;;;22.67;20.60;;;;;;;16.24;100.00;99063.00;2072107;28;20470;-73
2021/08/20 04:17:22;;;;;;;22.60;20.40;;;;;;;16.24;100.00;99063.00;2079815;28;20292;-73
2021/08/20 04:18:24;;;;;;;23.83;21.70;;;;;;;16.25;100.00;99061.91;2080844;28;20805;-73
2021/08/20 04:19:25;;;;;;;23.40;21.20;;;;;;;16.24;100.00;99059.53;2079941;28;20561;-74
2021/08/20 04:20:27;;;;;;;23.57;21.27;;;;;;;16.23;100.00;99058.75;2080161;28;20473;-73
2021/08/20 04:21:27;;;;;;;23.03;20.60;;;;;;;16.23;100.00;99058.75;2072302;28;20690;-73
2021/08/20 04:22:29;;;;;;;23.80;21.50;;;;;;;16.22;100.00;99065.25;2071815;28;20799;-73
2021/08/20 04:23:30;;;;;;;22.80;20.73;;;;;;;16.22;100.00;99062.56;2080065;28;20250;-73
2021/08/20 04:24:35;;;;;;;23.07;21.13;;;;;;;16.23;100.00;99061.44;2072482;28;20447;-73
2021/08/20 04:25:57;;;;;;;23.33;21.13;;;;;;;16.22;100.00;99062.56;2079690;28;20474;-73
2021/08/20 04:27:18;;;;;;;23.83;20.80;;;;;;;16.21;100.00;99063.69;2080602;28;20227;-73
2021/08/20 04:28:43;;;;;;;22.75;20.73;;;;;;;16.22;100.00;99059.88;2080084;28;20454;-73
2021/08/20 04:29:59;;;;;;;23.50;21.40;;;;;;;16.21;100.00;99061.00;2079008;28;20361;-73
2021/08/20 04:31:25;;;;;;;23.70;21.60;;;;;;;16.23;100.00;99060.66;2074417;28;20346;-73
2021/08/20 04:32:45;;;;;;;23.83;21.63;;;;;;;16.23;100.00;99064.13;2079926;28;20841;-73
2021/08/20 04:33:58;;;;;;;23.23;20.80;;;;;;;16.23;100.00;99064.13;2079741;28;20446;-73
2021/08/20 04:35:13;;;;;;;23.60;21.53;;;;;;;16.29;100.00;99062.03;2079605;28;20516;-73
2021/08/20 04:36:32;;;;;;;22.60;20.60;;;;;;;16.28;100.00;99065.84;2080102;28;20984;-73
2021/08/20 04:37:54;;;;;;;23.23;20.93;;;;;;;16.28;100.00;99063.16;2072812;28;20482;-73
2021/08/20 04:39:14;;;;;;;23.53;21.23;;;;;;;16.27;100.00;99062.38;2079500;28;20548;-73
2021/08/20 04:40:32;;;;;;;22.83;20.50;;;;;;;16.28;100.00;99066.63;2079972;28;20848;-73
2021/08/20 04:41:32;;;;;;;23.20;20.43;;;;;;;16.29;100.00;99067.41;2080840;28;20493;-73
2021/08/20 04:42:44;;;;;;;23.83;20.20;;;;;;;16.31;100.00;99065.16;2078929;28;20470;-73
2021/08/20 04:43:53;;;;;;;22.67;20.43;;;;;;;16.31;100.00;99060.56;2071830;28;21011;-73
2021/08/20 04:45:22;;;;;;;22.27;20.17;;;;;;;16.35;100.00;99063.38;2074768;28;20486;-73
2021/08/20 04:46:53;;;;;;;22.23;20.03;;;;;;;16.38;100.00;99060.03;2079940;28;20461;-73
2021/08/20 04:48:00;;;;;;;23.03;20.70;;;;;;;16.39;100.00;99062.38;2079714;28;20502;-73
2021/08/20 04:49:21;;;;;;;22.83;20.63;;;;;;;16.42;100.00;99060.13;2049661;28;20464;-73
2021/08/20 04:50:51;;;;;;;22.53;20.70;;;;;;;16.45;100.00;99059.47;2056842;28;20452;-73
2021/08/20 04:52:00;;;;;;;22.53;20.30;;;;;;;16.46;100.00;99055.66;2079525;28;20466;-73
2021/08/20 04:53:09;;;;;;;21.67;19.67;;;;;;;16.48;100.00;99053.41;2072244;28;20478;-74
2021/08/20 04:54:40;;;;;;;22.33;20.53;;;;;;;16.50;100.00;99057.34;2062286;28;20458;-73
2021/08/20 04:55:45;;;;;;;22.83;20.60;;;;;;;16.53;100.00;99061.28;2075127;28;20467;-73